createdAt,value
2023-05-10T00:00:03.864Z,100765.88
2023-05-10T00:03:39.583Z,100813.06
2023-05-10T00:07:22.685Z,100811.66
2023-05-10T00:11:29.295Z,100811.31
2023-05-10T00:15:00.263Z,100779.44
2023-05-10T00:23:08.742Z,100807.13
2023-05-10T00:31:31.507Z,100800.19
2023-05-10T01:19:45.477Z,100796.25
2023-05-10T01:24:09.343Z,100797.22
2023-05-10T01:28:14.022Z,100796.72
2023-05-10T01:31:58.670Z,100789.19
2023-05-10T01:35:21.188Z,100743.81
2023-05-10T01:39:22.288Z,100750.53
2023-05-10T01:42:41.625Z,100788.50
2023-05-10T01:46:48.459Z,100781.91
2023-05-10T01:50:13.613Z,100790.44
2023-05-10T01:53:42.988Z,100783.19
2023-05-10T01:57:27.476Z,100764.34
2023-05-10T02:01:14.602Z,100778.88
2023-05-10T02:04:46.965Z,100743.69
2023-05-10T02:08:12.431Z,100769.38
2023-05-10T02:11:38.327Z,100773.16
2023-05-10T02:14:59.841Z,100772.97
2023-05-10T02:22:22.953Z,100746.63
2023-05-10T02:26:52.496Z,100726.09
2023-05-10T02:39:33.466Z,100757.91
2023-05-10T02:51:56.914Z,100766.75
2023-05-10T02:55:22.594Z,100771.34
2023-05-10T02:58:41.127Z,100762.97
2023-05-10T03:02:01.648Z,100761.88
2023-05-10T03:05:14.871Z,100750.94
2023-05-10T03:08:23.982Z,100763.88
2023-05-10T03:12:07.396Z,100772.41
2023-05-10T03:15:45.124Z,100754.22
2023-05-10T03:19:30.866Z,100751.75
2023-05-10T03:22:47.808Z,100757.84
2023-05-10T03:26:01.453Z,100761.16
2023-05-10T03:29:22.071Z,100745.75
2023-05-10T03:32:30.217Z,100727.88
2023-05-10T03:35:39.255Z,100765.91
2023-05-10T03:38:55.148Z,100767.06
2023-05-10T03:42:05.969Z,100759.97
2023-05-10T03:45:28.342Z,100720.34
2023-05-10T03:48:54.351Z,100761.97
2023-05-10T03:52:17.976Z,100759.00
2023-05-10T03:55:54.820Z,100772.47
2023-05-10T03:59:23.893Z,100761.28
2023-05-10T04:02:47.962Z,100762.41
2023-05-10T04:06:21.136Z,100725.06
2023-05-10T04:09:54.567Z,100765.34
2023-05-10T04:13:14.995Z,100762.09
2023-05-10T04:16:28.630Z,100720.66
2023-05-10T04:19:47.872Z,100753.88
2023-05-10T04:23:01.942Z,100765.59
2023-05-10T04:26:09.963Z,100743.47
2023-05-10T04:29:27.069Z,100763.31
2023-05-10T04:32:37.281Z,100763.31
2023-05-10T04:35:56.745Z,100770.06
2023-05-10T04:39:10.492Z,100774.16
2023-05-10T04:42:40.689Z,100738.38
2023-05-10T04:46:03.783Z,100768.06
2023-05-10T04:49:20.118Z,100771.00
2023-05-10T04:52:37.122Z,100737.72
2023-05-10T04:55:45.486Z,100754.56
2023-05-10T04:59:07.675Z,100767.13
2023-05-10T05:02:20.965Z,100738.34
2023-05-10T05:05:25.719Z,100773.22
2023-05-10T05:08:32.185Z,100772.06
2023-05-10T05:11:45.256Z,100773.38
2023-05-10T05:15:03.573Z,100745.88
2023-05-10T05:18:19.221Z,100746.81
2023-05-10T05:21:30.897Z,100747.00
2023-05-10T05:24:47.483Z,100735.34
2023-05-10T05:27:56.860Z,100780.78
2023-05-10T05:31:06.921Z,100787.28
2023-05-10T05:34:10.994Z,100771.91
2023-05-10T05:37:31.005Z,100743.97
2023-05-10T05:40:40.937Z,100753.28
2023-05-10T05:43:44.352Z,100793.66
2023-05-10T05:46:56.648Z,100792.25
2023-05-10T05:50:07.708Z,100797.91
2023-05-10T05:53:22.446Z,100795.13
2023-05-10T05:57:55.877Z,100804.66
2023-05-10T06:01:15.535Z,100802.63
2023-05-10T06:28:25.759Z,100794.97
2023-05-10T06:57:47.293Z,100790.47
2023-05-10T07:38:31.615Z,100794.53
2023-05-10T07:41:35.906Z,100788.53
2023-05-10T07:44:38.812Z,100791.69
2023-05-10T07:47:44.234Z,100792.13
2023-05-10T07:50:46.747Z,100789.88
2023-05-10T07:53:50.186Z,100789.75
2023-05-10T07:56:59.225Z,100793.31
2023-05-10T08:00:04.733Z,100791.91
2023-05-10T08:03:14.439Z,100776.28
2023-05-10T08:06:17.150Z,100791.25
2023-05-10T08:09:25.025Z,100792.31
2023-05-10T08:12:40.386Z,100766.97
2023-05-10T08:15:42.802Z,100763.25
2023-05-10T08:18:46.695Z,100772.25
2023-05-10T08:21:49.518Z,100792.56
2023-05-10T08:25:00.387Z,100765.03
2023-05-10T08:28:09.913Z,100794.38
2023-05-10T08:31:19.187Z,100789.22
2023-05-10T08:34:23.041Z,100788.47
2023-05-10T08:37:26.379Z,100793.66
2023-05-10T08:40:29.451Z,100788.81
2023-05-10T08:43:39.642Z,100769.84
2023-05-10T08:46:52.035Z,100764.78
2023-05-10T08:49:58.520Z,100788.00
2023-05-10T08:53:05.226Z,100784.16
2023-05-10T08:56:08.481Z,100790.63
2023-05-10T08:59:14.428Z,100785.56
2023-05-10T09:02:28.680Z,100766.81
2023-05-10T09:05:34.843Z,100793.56
2023-05-10T09:08:41.657Z,100794.09
2023-05-10T09:11:50.051Z,100782.06
2023-05-10T09:14:53.784Z,100790.44
2023-05-10T09:17:56.603Z,100771.22
2023-05-10T09:20:58.643Z,100757.88
2023-05-10T09:24:07.995Z,100788.63
2023-05-10T09:27:10.938Z,100771.63
2023-05-10T09:30:34.467Z,100771.31
2023-05-10T09:33:52.161Z,100768.47
2023-05-10T09:37:02.090Z,100765.25
2023-05-10T09:40:08.688Z,100761.94
2023-05-10T09:43:47.348Z,100760.56
2023-05-10T09:47:13.149Z,100763.63
2023-05-10T09:50:15.831Z,100734.88
2023-05-10T09:53:34.809Z,100763.41
2023-05-10T10:34:39.855Z,100722.03
2023-05-10T10:50:20.475Z,100727.13
2023-05-10T10:52:12.481Z,100679.38
2023-05-10T10:55:52.504Z,100714.28
2023-05-10T10:59:10.270Z,100706.19
2023-05-10T11:02:46.942Z,100706.75
2023-05-10T11:05:51.000Z,100695.38
2023-05-10T11:09:13.532Z,100659.53
2023-05-10T11:12:27.408Z,100681.16
2023-05-10T11:15:51.322Z,100691.50
2023-05-10T11:19:05.129Z,100675.13
2023-05-10T11:22:25.128Z,100664.28
2023-05-10T11:25:31.211Z,100681.97
2023-05-10T11:28:49.767Z,100671.25
2023-05-10T11:32:15.561Z,100648.25
2023-05-10T11:35:28.396Z,100637.41
2023-05-10T11:38:59.766Z,100665.84
2023-05-10T11:42:14.417Z,100654.28
2023-05-10T11:45:17.888Z,100657.63
2023-05-10T11:48:25.131Z,100636.84
2023-05-10T11:51:29.212Z,100638.34
2023-05-10T11:54:36.142Z,100664.38
2023-05-10T11:57:39.796Z,100660.84
2023-05-10T12:00:48.202Z,100658.84
2023-05-10T12:03:54.189Z,100659.59
2023-05-10T12:06:57.343Z,100648.22
2023-05-10T12:10:11.776Z,100644.19
2023-05-10T12:13:27.430Z,100661.19
2023-05-10T12:21:13.223Z,100669.47
2023-05-10T12:24:19.224Z,100650.28
2023-05-10T12:27:22.893Z,100651.56
2023-05-10T12:30:30.459Z,100627.09
2023-05-10T12:33:44.677Z,100650.94
2023-05-10T12:36:46.801Z,100636.94
2023-05-10T12:39:52.660Z,100646.16
2023-05-10T12:42:56.120Z,100645.41
2023-05-10T12:45:58.323Z,100636.00
2023-05-10T12:49:08.507Z,100634.84
2023-05-10T12:52:11.487Z,100637.22
2023-05-10T12:55:17.025Z,100631.03
2023-05-10T12:58:34.306Z,100632.34
2023-05-10T13:01:38.109Z,100624.81
2023-05-10T13:04:56.851Z,100608.38
2023-05-10T13:07:59.420Z,100611.97
2023-05-10T13:11:05.384Z,100612.72
2023-05-10T13:14:08.190Z,100611.63
2023-05-10T13:17:13.551Z,100581.72
2023-05-10T13:20:21.409Z,100600.56
2023-05-10T13:23:24.391Z,100591.56
2023-05-10T13:26:33.724Z,100590.22
2023-05-10T13:29:35.896Z,100583.75
2023-05-10T13:32:38.230Z,100572.50
2023-05-10T13:35:40.332Z,100578.88
2023-05-10T13:38:42.424Z,100580.28
2023-05-10T13:41:50.516Z,100569.66
2023-05-10T13:44:52.901Z,100567.34
2023-05-10T13:47:54.910Z,100566.75
2023-05-10T13:50:57.137Z,100558.50
2023-05-10T13:53:59.512Z,100562.50
2023-05-10T13:57:01.797Z,100554.00
2023-05-10T14:00:04.396Z,100553.94
2023-05-10T14:03:08.819Z,100549.34
2023-05-10T14:06:10.970Z,100547.28
2023-05-10T14:09:13.019Z,100526.41
2023-05-10T14:12:15.727Z,100552.88
2023-05-10T14:15:17.908Z,100546.31
2023-05-10T14:18:20.189Z,100542.94
2023-05-10T14:21:22.221Z,100529.22
2023-05-10T14:24:25.638Z,100500.47
2023-05-10T14:27:28.032Z,100536.41
2023-05-10T14:30:31.944Z,100536.44
2023-05-10T14:33:38.214Z,100536.59
2023-05-10T14:40:25.833Z,100540.63
2023-05-10T14:44:51.914Z,100498.38
2023-05-10T14:48:30.790Z,100535.78
2023-05-10T14:55:45.303Z,100528.19
2023-05-10T15:07:40.002Z,100506.69
2023-05-10T15:10:54.331Z,100536.78
2023-05-10T15:14:02.633Z,100537.66
2023-05-10T15:20:53.417Z,100507.66
2023-05-10T15:27:26.932Z,100521.13
2023-05-10T15:34:28.660Z,100482.53
2023-05-10T15:37:50.600Z,100481.28
2023-05-10T15:41:12.601Z,100514.63
2023-05-10T15:44:35.736Z,100530.09
2023-05-10T15:47:46.077Z,100515.06
2023-05-10T15:51:01.077Z,100486.19
2023-05-10T15:54:28.965Z,100527.00
2023-05-10T15:57:36.792Z,100528.38
2023-05-10T16:00:51.282Z,100488.38
2023-05-10T16:03:58.931Z,100513.94
2023-05-10T16:07:27.311Z,100495.97
2023-05-10T16:10:42.556Z,100492.94
2023-05-10T16:14:10.168Z,100481.41
2023-05-10T16:17:28.908Z,100514.28
2023-05-10T16:21:05.415Z,100486.84
2023-05-10T16:24:37.768Z,100522.72
2023-05-10T16:31:38.309Z,100495.03
2023-05-10T16:35:37.014Z,100477.66
2023-05-10T16:39:27.452Z,100490.09
2023-05-10T16:43:02.366Z,100499.91
2023-05-10T16:55:10.363Z,100514.78
2023-05-10T17:02:11.549Z,100507.94
2023-05-10T17:05:50.701Z,100489.75
2023-05-10T17:09:07.862Z,100528.97
2023-05-10T17:12:25.969Z,100547.31
2023-05-10T17:16:08.595Z,100556.47
2023-05-10T17:19:37.516Z,100524.59
2023-05-10T17:23:08.947Z,100557.75
2023-05-10T17:26:38.722Z,100560.81
2023-05-10T17:30:38.281Z,100540.13
2023-05-10T17:46:20.340Z,100572.56
2023-05-10T17:49:47.885Z,100562.16
2023-05-10T17:53:28.926Z,100574.22
2023-05-10T17:56:49.295Z,100550.81
2023-05-10T18:00:07.416Z,100575.66
2023-05-10T18:03:56.952Z,100559.59
2023-05-10T18:07:04.433Z,100568.97
2023-05-10T18:10:13.076Z,100585.47
2023-05-10T18:13:18.044Z,100592.78
2023-05-10T18:16:24.404Z,100595.22
2023-05-10T18:19:46.183Z,100593.00
2023-05-10T18:22:58.367Z,100587.91
2023-05-10T18:26:03.187Z,100597.66
2023-05-10T18:29:13.836Z,100602.75
2023-05-10T18:32:27.749Z,100597.84
2023-05-10T18:35:45.569Z,100605.59
2023-05-10T18:38:52.433Z,100585.63
2023-05-10T18:42:02.452Z,100602.75
2023-05-10T18:45:15.530Z,100614.72
2023-05-10T18:48:22.331Z,100618.59
2023-05-10T18:51:33.899Z,100616.16
2023-05-10T18:54:46.700Z,100619.81
2023-05-10T18:57:58.670Z,100624.47
2023-05-10T19:01:10.311Z,100625.50
2023-05-10T19:04:22.472Z,100601.69
2023-05-10T19:07:40.668Z,100623.44
2023-05-10T19:10:51.561Z,100625.69
2023-05-10T19:14:00.478Z,100635.66
2023-05-10T19:17:41.112Z,100578.22
2023-05-10T19:20:56.206Z,100627.09
2023-05-10T19:24:06.916Z,100624.66
2023-05-10T19:27:20.034Z,100624.66
2023-05-10T19:30:36.107Z,100631.16
2023-05-10T19:33:47.162Z,100635.63
2023-05-10T19:37:03.036Z,100588.56
2023-05-10T19:40:13.688Z,100613.63
2023-05-10T19:43:22.106Z,100600.56
2023-05-10T19:46:35.082Z,100638.66
2023-05-10T19:49:39.906Z,100636.41
2023-05-10T19:53:03.053Z,100596.91
2023-05-10T19:56:21.449Z,100630.91
2023-05-10T19:59:55.914Z,100580.81
2023-05-10T20:03:20.008Z,100620.53
2023-05-10T20:07:00.216Z,100585.91
2023-05-10T20:10:21.915Z,100628.66
2023-05-10T20:13:51.165Z,100631.88
2023-05-10T20:17:16.575Z,100609.22
2023-05-10T20:21:02.238Z,100629.00
2023-05-10T20:24:34.921Z,100633.06
2023-05-10T20:27:53.698Z,100586.78
2023-05-10T20:31:07.720Z,100615.16
2023-05-10T20:34:23.407Z,100615.97
2023-05-10T20:37:38.390Z,100636.53
2023-05-10T20:41:01.626Z,100629.41
2023-05-10T20:44:54.117Z,100630.81
2023-05-10T20:51:47.369Z,100630.19
2023-05-10T20:58:27.697Z,100603.47
2023-05-10T21:02:06.309Z,100630.81
2023-05-10T21:05:27.002Z,100612.22
2023-05-10T21:08:46.306Z,100620.59
2023-05-10T21:12:50.845Z,100617.72
2023-05-10T21:16:19.759Z,100620.78
2023-05-10T21:20:15.422Z,100584.25
2023-05-10T21:23:38.565Z,100613.03
2023-05-10T21:27:15.295Z,100584.31
2023-05-10T21:40:10.189Z,100625.19
2023-05-10T22:11:06.895Z,100636.47
2023-05-10T22:14:59.508Z,100638.03
2023-05-10T22:18:16.296Z,100642.88
2023-05-10T22:21:34.775Z,100638.03
2023-05-10T22:24:47.089Z,100646.97
2023-05-10T22:31:17.330Z,100644.88
2023-05-10T22:34:24.034Z,100639.59
2023-05-10T22:37:30.673Z,100647.88
2023-05-10T22:40:43.079Z,100614.63
2023-05-10T22:43:54.860Z,100652.41
2023-05-10T22:47:14.603Z,100649.78
2023-05-10T22:50:40.071Z,100634.47
2023-05-10T22:54:19.698Z,100650.00
2023-05-10T22:57:29.938Z,100660.47
2023-05-10T23:01:04.881Z,100611.09
2023-05-10T23:04:25.055Z,100608.13
2023-05-10T23:07:59.202Z,100621.41
2023-05-10T23:11:26.760Z,100655.63
2023-05-10T23:14:59.478Z,100626.44
2023-05-10T23:18:44.011Z,100652.69
2023-05-10T23:22:19.716Z,100636.72
2023-05-10T23:25:50.651Z,100664.22
2023-05-10T23:29:17.238Z,100638.13
2023-05-10T23:32:42.444Z,100615.91
2023-05-10T23:36:28.805Z,100658.41
2023-05-10T23:39:46.712Z,100665.75
2023-05-10T23:43:05.526Z,100644.25
2023-05-10T23:46:25.635Z,100666.94
2023-05-10T23:49:51.976Z,100668.13
2023-05-10T23:53:02.040Z,100656.41
2023-05-10T23:56:11.536Z,100671.09
2023-05-10T23:59:15.116Z,100660.84
